sensor_id;sensor_type;location;lat;lon;timestamp;P1;durP1;ratioP1;P2;durP2;ratioP2
76610;SDS011;65503;48.534;9.062;2023-06-10T00:00:02;8.68;;;5.78;;
76610;SDS011;65503;48.534;9.062;2023-06-10T00:02:31;8.27;;;5.95;;
76610;SDS011;65503;48.534;9.062;2023-06-10T00:04:58;8.32;;;5.70;;
76610;SDS011;65503;48.534;9.062;2023-06-10T00:07:25;9.25;;;5.93;;
76610;SDS011;65503;48.534;9.062;2023-06-10T00:09:51;8.45;;;5.60;;
76610;SDS011;65503;48.534;9.062;2023-06-10T00:12:18;9.63;;;6.50;;
76610;SDS011;65503;48.534;9.062;2023-06-10T00:14:46;8.98;;;6.53;;
76610;SDS011;65503;48.534;9.062;2023-06-10T00:17:17;9.88;;;6.47;;
76610;SDS011;65503;48.534;9.062;2023-06-10T00:19:44;8.00;;;5.72;;
76610;SDS011;65503;48.534;9.062;2023-06-10T00:22:13;9.75;;;6.20;;
76610;SDS011;65503;48.534;9.062;2023-06-10T00:29:34;9.00;;;6.32;;
76610;SDS011;65503;48.534;9.062;2023-06-10T00:32:01;10.10;;;7.18;;
76610;SDS011;65503;48.534;9.062;2023-06-10T00:34:28;9.27;;;6.57;;
76610;SDS011;65503;48.534;9.062;2023-06-10T00:36:55;9.52;;;6.35;;
76610;SDS011;65503;48.534;9.062;2023-06-10T00:39:21;12.68;;;6.97;;
76610;SDS011;65503;48.534;9.062;2023-06-10T00:41:48;9.30;;;6.85;;
76610;SDS011;65503;48.534;9.062;2023-06-10T00:44:15;8.52;;;6.47;;
76610;SDS011;65503;48.534;9.062;2023-06-10T00:46:42;9.35;;;6.65;;
76610;SDS011;65503;48.534;9.062;2023-06-10T00:49:09;8.82;;;6.47;;
76610;SDS011;65503;48.534;9.062;2023-06-10T00:51:36;8.68;;;6.45;;
76610;SDS011;65503;48.534;9.062;2023-06-10T00:54:02;9.32;;;6.75;;
76610;SDS011;65503;48.534;9.062;2023-06-10T00:56:30;8.90;;;6.72;;
76610;SDS011;65503;48.534;9.062;2023-06-10T00:58:58;8.75;;;6.43;;
76610;SDS011;65503;48.534;9.062;2023-06-10T01:01:25;9.13;;;6.72;;
76610;SDS011;65503;48.534;9.062;2023-06-10T01:03:52;8.63;;;6.45;;
76610;SDS011;65503;48.534;9.062;2023-06-10T01:06:41;9.80;;;6.88;;
76610;SDS011;65503;48.534;9.062;2023-06-10T01:12:34;9.77;;;7.57;;
76610;SDS011;65503;48.534;9.062;2023-06-10T01:15:08;9.65;;;7.63;;
76610;SDS011;65503;48.534;9.062;2023-06-10T01:17:44;13.05;;;7.95;;
76610;SDS011;65503;48.534;9.062;2023-06-10T01:20:28;9.43;;;7.07;;
76610;SDS011;65503;48.534;9.062;2023-06-10T01:22:56;11.13;;;7.05;;
76610;SDS011;65503;48.534;9.062;2023-06-10T01:25:24;9.13;;;6.95;;
76610;SDS011;65503;48.534;9.062;2023-06-10T01:28:07;9.10;;;7.00;;
76610;SDS011;65503;48.534;9.062;2023-06-10T01:33:24;9.38;;;6.85;;
76610;SDS011;65503;48.534;9.062;2023-06-10T01:35:54;9.95;;;6.88;;
76610;SDS011;65503;48.534;9.062;2023-06-10T01:38:24;8.88;;;6.70;;
76610;SDS011;65503;48.534;9.062;2023-06-10T01:40:53;9.43;;;6.70;;
76610;SDS011;65503;48.534;9.062;2023-06-10T01:43:21;9.73;;;6.45;;
76610;SDS011;65503;48.534;9.062;2023-06-10T01:45:48;9.90;;;7.07;;
76610;SDS011;65503;48.534;9.062;2023-06-10T01:48:15;10.50;;;7.00;;
76610;SDS011;65503;48.534;9.062;2023-06-10T01:50:42;10.60;;;8.02;;
76610;SDS011;65503;48.534;9.062;2023-06-10T01:53:10;10.90;;;8.07;;
76610;SDS011;65503;48.534;9.062;2023-06-10T01:55:36;11.48;;;8.00;;
76610;SDS011;65503;48.534;9.062;2023-06-10T01:58:03;10.82;;;7.40;;
76610;SDS011;65503;48.534;9.062;2023-06-10T02:00:30;11.32;;;8.23;;
76610;SDS011;65503;48.534;9.062;2023-06-10T02:02:57;10.30;;;7.57;;
76610;SDS011;65503;48.534;9.062;2023-06-10T02:05:24;13.23;;;7.85;;
76610;SDS011;65503;48.534;9.062;2023-06-10T02:07:51;10.63;;;7.97;;
76610;SDS011;65503;48.534;9.062;2023-06-10T02:10:17;9.93;;;7.63;;
76610;SDS011;65503;48.534;9.062;2023-06-10T02:12:44;12.00;;;7.85;;
76610;SDS011;65503;48.534;9.062;2023-06-10T02:15:10;11.32;;;8.05;;
76610;SDS011;65503;48.534;9.062;2023-06-10T02:17:37;9.70;;;7.35;;
76610;SDS011;65503;48.534;9.062;2023-06-10T02:20:04;11.25;;;7.85;;
76610;SDS011;65503;48.534;9.062;2023-06-10T02:22:33;11.23;;;7.60;;
76610;SDS011;65503;48.534;9.062;2023-06-10T02:25:00;11.27;;;7.85;;
76610;SDS011;65503;48.534;9.062;2023-06-10T02:27:26;11.23;;;7.93;;
76610;SDS011;65503;48.534;9.062;2023-06-10T02:29:53;10.02;;;7.20;;
76610;SDS011;65503;48.534;9.062;2023-06-10T02:32:20;10.65;;;7.88;;
76610;SDS011;65503;48.534;9.062;2023-06-10T02:34:46;10.60;;;6.88;;
76610;SDS011;65503;48.534;9.062;2023-06-10T02:37:15;10.20;;;7.70;;
76610;SDS011;65503;48.534;9.062;2023-06-10T02:39:42;9.93;;;7.55;;
76610;SDS011;65503;48.534;9.062;2023-06-10T02:42:08;10.65;;;7.53;;
76610;SDS011;65503;48.534;9.062;2023-06-10T02:44:36;10.50;;;7.82;;
76610;SDS011;65503;48.534;9.062;2023-06-10T02:47:03;11.35;;;7.85;;
76610;SDS011;65503;48.534;9.062;2023-06-10T02:49:30;11.23;;;7.95;;
76610;SDS011;65503;48.534;9.062;2023-06-10T02:51:56;12.98;;;8.63;;
76610;SDS011;65503;48.534;9.062;2023-06-10T02:54:23;10.48;;;8.35;;
76610;SDS011;65503;48.534;9.062;2023-06-10T02:56:51;11.45;;;8.45;;
76610;SDS011;65503;48.534;9.062;2023-06-10T02:59:18;10.43;;;7.60;;
76610;SDS011;65503;48.534;9.062;2023-06-10T03:01:45;10.15;;;8.15;;
76610;SDS011;65503;48.534;9.062;2023-06-10T03:04:13;9.90;;;7.40;;
76610;SDS011;65503;48.534;9.062;2023-06-10T03:06:41;10.30;;;7.80;;
76610;SDS011;65503;48.534;9.062;2023-06-10T03:09:07;12.68;;;8.25;;
76610;SDS011;65503;48.534;9.062;2023-06-10T03:11:34;10.82;;;8.30;;
76610;SDS011;65503;48.534;9.062;2023-06-10T03:14:01;10.43;;;7.85;;
76610;SDS011;65503;48.534;9.062;2023-06-10T03:16:28;11.13;;;7.78;;
76610;SDS011;65503;48.534;9.062;2023-06-10T03:18:56;11.52;;;7.82;;
76610;SDS011;65503;48.534;9.062;2023-06-10T03:21:23;12.15;;;7.97;;
76610;SDS011;65503;48.534;9.062;2023-06-10T03:23:50;12.15;;;8.77;;
76610;SDS011;65503;48.534;9.062;2023-06-10T03:26:16;12.85;;;8.50;;
76610;SDS011;65503;48.534;9.062;2023-06-10T03:28:43;11.38;;;8.07;;
76610;SDS011;65503;48.534;9.062;2023-06-10T03:31:09;11.00;;;8.48;;
76610;SDS011;65503;48.534;9.062;2023-06-10T03:33:36;10.93;;;8.23;;
76610;SDS011;65503;48.534;9.062;2023-06-10T03:36:03;11.60;;;7.82;;
76610;SDS011;65503;48.534;9.062;2023-06-10T03:38:30;11.60;;;8.57;;
76610;SDS011;65503;48.534;9.062;2023-06-10T03:40:57;11.25;;;8.52;;
76610;SDS011;65503;48.534;9.062;2023-06-10T03:43:23;12.25;;;8.43;;
76610;SDS011;65503;48.534;9.062;2023-06-10T03:45:50;11.00;;;8.30;;
76610;SDS011;65503;48.534;9.062;2023-06-10T03:48:16;11.68;;;8.65;;
76610;SDS011;65503;48.534;9.062;2023-06-10T03:50:43;11.38;;;8.27;;
76610;SDS011;65503;48.534;9.062;2023-06-10T03:53:09;11.75;;;8.40;;
76610;SDS011;65503;48.534;9.062;2023-06-10T03:55:36;11.75;;;8.30;;
76610;SDS011;65503;48.534;9.062;2023-06-10T03:58:03;10.07;;;8.02;;
76610;SDS011;65503;48.534;9.062;2023-06-10T04:00:29;11.15;;;8.43;;
76610;SDS011;65503;48.534;9.062;2023-06-10T04:02:56;12.40;;;8.75;;
76610;SDS011;65503;48.534;9.062;2023-06-10T04:05:24;10.55;;;8.32;;
76610;SDS011;65503;48.534;9.062;2023-06-10T04:07:51;11.32;;;8.55;;
76610;SDS011;65503;48.534;9.062;2023-06-10T04:10:17;12.55;;;8.10;;
76610;SDS011;65503;48.534;9.062;2023-06-10T04:12:44;10.98;;;8.07;;
76610;SDS011;65503;48.534;9.062;2023-06-10T04:15:10;10.38;;;8.18;;
76610;SDS011;65503;48.534;9.062;2023-06-10T04:17:38;11.00;;;7.95;;
76610;SDS011;65503;48.534;9.062;2023-06-10T04:20:05;11.95;;;8.20;;
76610;SDS011;65503;48.534;9.062;2023-06-10T04:22:33;12.30;;;7.95;;
76610;SDS011;65503;48.534;9.062;2023-06-10T04:25:00;11.30;;;8.15;;
76610;SDS011;65503;48.534;9.062;2023-06-10T04:27:27;11.35;;;7.70;;
76610;SDS011;65503;48.534;9.062;2023-06-10T04:29:53;10.30;;;7.70;;
76610;SDS011;65503;48.534;9.062;2023-06-10T04:32:20;10.40;;;7.97;;
76610;SDS011;65503;48.534;9.062;2023-06-10T04:34:48;10.40;;;8.18;;
76610;SDS011;65503;48.534;9.062;2023-06-10T04:37:15;13.80;;;7.90;;
76610;SDS011;65503;48.534;9.062;2023-06-10T04:39:41;10.55;;;7.82;;
76610;SDS011;65503;48.534;9.062;2023-06-10T04:42:08;9.32;;;6.90;;
76610;SDS011;65503;48.534;9.062;2023-06-10T04:44:34;9.77;;;6.28;;
76610;SDS011;65503;48.534;9.062;2023-06-10T04:47:01;10.50;;;6.47;;
76610;SDS011;65503;48.534;9.062;2023-06-10T04:51:55;9.27;;;7.20;;
76610;SDS011;65503;48.534;9.062;2023-06-10T04:54:22;9.60;;;6.57;;
76610;SDS011;65503;48.534;9.062;2023-06-10T04:56:48;9.20;;;6.43;;
76610;SDS011;65503;48.534;9.062;2023-06-10T04:59:15;8.05;;;5.88;;
76610;SDS011;65503;48.534;9.062;2023-06-10T05:01:42;8.38;;;6.05;;
76610;SDS011;65503;48.534;9.062;2023-06-10T05:04:08;8.52;;;5.95;;
76610;SDS011;65503;48.534;9.062;2023-06-10T05:06:35;8.40;;;6.30;;
76610;SDS011;65503;48.534;9.062;2023-06-10T05:09:02;7.78;;;6.15;;
76610;SDS011;65503;48.534;9.062;2023-06-10T05:11:29;9.73;;;6.30;;
76610;SDS011;65503;48.534;9.062;2023-06-10T05:13:55;7.55;;;5.65;;
76610;SDS011;65503;48.534;9.062;2023-06-10T05:16:22;9.27;;;6.28;;
76610;SDS011;65503;48.534;9.062;2023-06-10T05:18:48;7.47;;;5.88;;
76610;SDS011;65503;48.534;9.062;2023-06-10T05:21:17;9.95;;;6.43;;
76610;SDS011;65503;48.534;9.062;2023-06-10T05:23:43;8.88;;;5.95;;
76610;SDS011;65503;48.534;9.062;2023-06-10T05:26:10;8.20;;;5.97;;
76610;SDS011;65503;48.534;9.062;2023-06-10T05:28:36;7.80;;;5.63;;
76610;SDS011;65503;48.534;9.062;2023-06-10T05:31:03;6.85;;;5.30;;
76610;SDS011;65503;48.534;9.062;2023-06-10T05:35:56;7.72;;;5.60;;
76610;SDS011;65503;48.534;9.062;2023-06-10T05:38:22;7.38;;;5.22;;
76610;SDS011;65503;48.534;9.062;2023-06-10T05:40:49;7.65;;;4.93;;
76610;SDS011;65503;48.534;9.062;2023-06-10T05:43:15;10.25;;;5.30;;
76610;SDS011;65503;48.534;9.062;2023-06-10T05:45:43;7.22;;;5.18;;
76610;SDS011;65503;48.534;9.062;2023-06-10T05:48:09;9.00;;;5.32;;
76610;SDS011;65503;48.534;9.062;2023-06-10T05:50:36;8.02;;;5.45;;
76610;SDS011;65503;48.534;9.062;2023-06-10T05:53:05;9.82;;;5.50;;
76610;SDS011;65503;48.534;9.062;2023-06-10T05:55:33;7.97;;;5.47;;
76610;SDS011;65503;48.534;9.062;2023-06-10T05:58:00;6.18;;;4.82;;
76610;SDS011;65503;48.534;9.062;2023-06-10T06:00:26;8.40;;;4.75;;
76610;SDS011;65503;48.534;9.062;2023-06-10T06:02:53;7.70;;;5.22;;
76610;SDS011;65503;48.534;9.062;2023-06-10T06:05:20;6.43;;;4.90;;
76610;SDS011;65503;48.534;9.062;2023-06-10T06:07:47;6.55;;;5.47;;
76610;SDS011;65503;48.534;9.062;2023-06-10T06:10:14;7.32;;;4.95;;
76610;SDS011;65503;48.534;9.062;2023-06-10T06:12:40;6.97;;;4.95;;
76610;SDS011;65503;48.534;9.062;2023-06-10T06:17:35;7.82;;;5.43;;
76610;SDS011;65503;48.534;9.062;2023-06-10T06:20:02;8.00;;;4.72;;
76610;SDS011;65503;48.534;9.062;2023-06-10T06:22:29;6.60;;;4.80;;
76610;SDS011;65503;48.534;9.062;2023-06-10T06:24:56;8.10;;;5.03;;
76610;SDS011;65503;48.534;9.062;2023-06-10T06:27:22;7.57;;;5.45;;
76610;SDS011;65503;48.534;9.062;2023-06-10T06:32:17;7.68;;;5.20;;
76610;SDS011;65503;48.534;9.062;2023-06-10T06:34:44;9.93;;;5.05;;
76610;SDS011;65503;48.534;9.062;2023-06-10T06:37:11;7.47;;;5.03;;
76610;SDS011;65503;48.534;9.062;2023-06-10T06:42:03;9.38;;;5.10;;
76610;SDS011;65503;48.534;9.062;2023-06-10T06:44:32;6.82;;;4.72;;
76610;SDS011;65503;48.534;9.062;2023-06-10T06:54:17;7.22;;;4.78;;
76610;SDS011;65503;48.534;9.062;2023-06-10T06:59:10;7.43;;;4.32;;
76610;SDS011;65503;48.534;9.062;2023-06-10T07:01:40;8.88;;;5.38;;
76610;SDS011;65503;48.534;9.062;2023-06-10T07:04:06;9.05;;;4.85;;
76610;SDS011;65503;48.534;9.062;2023-06-10T07:09:04;7.90;;;4.25;;
76610;SDS011;65503;48.534;9.062;2023-06-10T07:11:31;7.20;;;4.80;;
76610;SDS011;65503;48.534;9.062;2023-06-10T07:16:23;5.75;;;4.47;;
76610;SDS011;65503;48.534;9.062;2023-06-10T07:18:50;6.55;;;4.63;;
76610;SDS011;65503;48.534;9.062;2023-06-10T07:21:17;6.95;;;4.68;;
76610;SDS011;65503;48.534;9.062;2023-06-10T07:26:11;6.35;;;4.18;;
76610;SDS011;65503;48.534;9.062;2023-06-10T07:28:39;8.80;;;4.38;;
76610;SDS011;65503;48.534;9.062;2023-06-10T07:31:07;7.82;;;4.80;;
76610;SDS011;65503;48.534;9.062;2023-06-10T07:33:34;9.70;;;4.80;;
76610;SDS011;65503;48.534;9.062;2023-06-10T07:36:01;6.80;;;4.10;;
76610;SDS011;65503;48.534;9.062;2023-06-10T07:40:53;8.00;;;4.25;;
76610;SDS011;65503;48.534;9.062;2023-06-10T07:45:46;7.80;;;4.70;;
76610;SDS011;65503;48.534;9.062;2023-06-10T07:48:13;6.72;;;4.45;;
76610;SDS011;65503;48.534;9.062;2023-06-10T07:50:40;7.00;;;5.05;;
76610;SDS011;65503;48.534;9.062;2023-06-10T07:53:06;9.13;;;4.47;;
76610;SDS011;65503;48.534;9.062;2023-06-10T07:55:33;6.85;;;4.55;;
76610;SDS011;65503;48.534;9.062;2023-06-10T07:57:59;6.25;;;4.28;;
76610;SDS011;65503;48.534;9.062;2023-06-10T08:02:52;15.18;;;5.10;;
76610;SDS011;65503;48.534;9.062;2023-06-10T08:05:19;6.60;;;4.18;;
76610;SDS011;65503;48.534;9.062;2023-06-10T08:07:47;7.30;;;5.13;;
76610;SDS011;65503;48.534;9.062;2023-06-10T08:10:13;6.97;;;4.38;;
76610;SDS011;65503;48.534;9.062;2023-06-10T08:12:40;5.65;;;3.85;;
76610;SDS011;65503;48.534;9.062;2023-06-10T08:15:06;6.18;;;4.07;;
76610;SDS011;65503;48.534;9.062;2023-06-10T08:17:34;6.68;;;3.90;;
76610;SDS011;65503;48.534;9.062;2023-06-10T08:20:01;8.02;;;3.90;;
76610;SDS011;65503;48.534;9.062;2023-06-10T08:22:27;5.05;;;3.70;;
76610;SDS011;65503;48.534;9.062;2023-06-10T08:24:55;5.93;;;4.20;;
76610;SDS011;65503;48.534;9.062;2023-06-10T08:27:22;6.75;;;4.03;;
76610;SDS011;65503;48.534;9.062;2023-06-10T08:29:49;6.25;;;3.95;;
76610;SDS011;65503;48.534;9.062;2023-06-10T08:32:15;5.40;;;3.63;;
76610;SDS011;65503;48.534;9.062;2023-06-10T08:34:42;6.97;;;4.32;;
76610;SDS011;65503;48.534;9.062;2023-06-10T08:37:09;5.57;;;3.55;;
76610;SDS011;65503;48.534;9.062;2023-06-10T08:39:35;5.35;;;3.63;;
76610;SDS011;65503;48.534;9.062;2023-06-10T08:44:47;7.60;;;3.75;;
76610;SDS011;65503;48.534;9.062;2023-06-10T08:47:19;5.95;;;3.60;;
76610;SDS011;65503;48.534;9.062;2023-06-10T08:49:48;5.63;;;3.70;;
76610;SDS011;65503;48.534;9.062;2023-06-10T08:52:19;6.32;;;3.70;;
76610;SDS011;65503;48.534;9.062;2023-06-10T08:55:10;5.50;;;3.70;;
76610;SDS011;65503;48.534;9.062;2023-06-10T08:57:37;4.47;;;3.03;;
76610;SDS011;65503;48.534;9.062;2023-06-10T09:00:04;5.75;;;3.75;;
76610;SDS011;65503;48.534;9.062;2023-06-10T09:02:34;6.80;;;3.50;;
76610;SDS011;65503;48.534;9.062;2023-06-10T09:05:04;8.05;;;3.80;;
76610;SDS011;65503;48.534;9.062;2023-06-10T09:07:31;5.63;;;3.50;;
76610;SDS011;65503;48.534;9.062;2023-06-10T09:10:00;5.38;;;3.50;;
76610;SDS011;65503;48.534;9.062;2023-06-10T09:12:29;5.55;;;3.55;;
76610;SDS011;65503;48.534;9.062;2023-06-10T09:14:55;6.88;;;3.70;;
76610;SDS011;65503;48.534;9.062;2023-06-10T09:17:22;5.90;;;4.00;;
76610;SDS011;65503;48.534;9.062;2023-06-10T09:19:52;5.80;;;3.78;;
76610;SDS011;65503;48.534;9.062;2023-06-10T09:22:23;5.70;;;3.78;;
76610;SDS011;65503;48.534;9.062;2023-06-10T09:28:12;5.53;;;3.58;;
76610;SDS011;65503;48.534;9.062;2023-06-10T09:30:46;5.05;;;3.45;;
76610;SDS011;65503;48.534;9.062;2023-06-10T09:33:13;5.70;;;3.90;;
76610;SDS011;65503;48.534;9.062;2023-06-10T09:35:47;7.22;;;3.83;;
76610;SDS011;65503;48.534;9.062;2023-06-10T09:38:19;5.65;;;3.90;;
76610;SDS011;65503;48.534;9.062;2023-06-10T09:40:48;6.32;;;3.67;;
76610;SDS011;65503;48.534;9.062;2023-06-10T09:43:41;5.40;;;3.58;;
76610;SDS011;65503;48.534;9.062;2023-06-10T09:46:15;5.70;;;3.40;;
76610;SDS011;65503;48.534;9.062;2023-06-10T09:49:01;5.22;;;3.22;;
76610;SDS011;65503;48.534;9.062;2023-06-10T09:52:28;4.95;;;3.28;;
76610;SDS011;65503;48.534;9.062;2023-06-10T09:59:02;5.68;;;3.55;;
76610;SDS011;65503;48.534;9.062;2023-06-10T10:05:06;5.47;;;3.17;;
76610;SDS011;65503;48.534;9.062;2023-06-10T10:07:33;6.15;;;3.58;;
76610;SDS011;65503;48.534;9.062;2023-06-10T10:12:26;5.70;;;3.38;;
76610;SDS011;65503;48.534;9.062;2023-06-10T10:14:53;5.20;;;3.25;;
76610;SDS011;65503;48.534;9.062;2023-06-10T10:17:22;5.30;;;3.40;;
76610;SDS011;65503;48.534;9.062;2023-06-10T10:19:53;4.78;;;3.58;;
76610;SDS011;65503;48.534;9.062;2023-06-10T10:22:29;5.57;;;3.58;;
76610;SDS011;65503;48.534;9.062;2023-06-10T10:25:02;5.18;;;3.08;;
76610;SDS011;65503;48.534;9.062;2023-06-10T10:28:06;5.00;;;3.22;;
76610;SDS011;65503;48.534;9.062;2023-06-10T10:30:28;5.50;;;3.30;;
76610;SDS011;65503;48.534;9.062;2023-06-10T10:36:06;6.18;;;3.55;;
76610;SDS011;65503;48.534;9.062;2023-06-10T10:38:34;4.82;;;3.30;;
76610;SDS011;65503;48.534;9.062;2023-06-10T10:41:02;6.20;;;3.58;;
76610;SDS011;65503;48.534;9.062;2023-06-10T10:43:30;6.15;;;3.63;;
76610;SDS011;65503;48.534;9.062;2023-06-10T10:46:16;8.35;;;3.22;;
76610;SDS011;65503;48.534;9.062;2023-06-10T10:48:43;5.65;;;3.58;;
76610;SDS011;65503;48.534;9.062;2023-06-10T10:51:10;6.55;;;3.63;;
76610;SDS011;65503;48.534;9.062;2023-06-10T10:53:37;5.70;;;3.40;;
76610;SDS011;65503;48.534;9.062;2023-06-10T10:56:12;5.40;;;3.28;;
76610;SDS011;65503;48.534;9.062;2023-06-10T10:58:40;5.20;;;3.20;;
76610;SDS011;65503;48.534;9.062;2023-06-10T11:01:13;5.40;;;3.22;;
76610;SDS011;65503;48.534;9.062;2023-06-10T11:03:44;5.00;;;3.15;;
76610;SDS011;65503;48.534;9.062;2023-06-10T11:06:14;5.32;;;3.20;;
76610;SDS011;65503;48.534;9.062;2023-06-10T11:11:22;6.70;;;3.20;;
76610;SDS011;65503;48.534;9.062;2023-06-10T11:13:59;5.50;;;3.60;;
76610;SDS011;65503;48.534;9.062;2023-06-10T11:16:40;5.60;;;3.55;;
76610;SDS011;65503;48.534;9.062;2023-06-10T11:19:08;5.70;;;3.13;;
76610;SDS011;65503;48.534;9.062;2023-06-10T11:22:15;5.65;;;3.60;;
76610;SDS011;65503;48.534;9.062;2023-06-10T11:24:30;7.82;;;3.60;;
76610;SDS011;65503;48.534;9.062;2023-06-10T11:29:56;5.20;;;3.42;;
76610;SDS011;65503;48.534;9.062;2023-06-10T11:32:32;5.43;;;3.70;;
76610;SDS011;65503;48.534;9.062;2023-06-10T11:35:05;5.78;;;3.25;;
76610;SDS011;65503;48.534;9.062;2023-06-10T11:37:33;5.53;;;3.53;;
76610;SDS011;65503;48.534;9.062;2023-06-10T11:40:00;5.47;;;3.33;;
76610;SDS011;65503;48.534;9.062;2023-06-10T11:42:27;7.10;;;3.50;;
76610;SDS011;65503;48.534;9.062;2023-06-10T11:44:54;5.28;;;2.75;;
76610;SDS011;65503;48.534;9.062;2023-06-10T11:47:21;4.30;;;2.75;;
76610;SDS011;65503;48.534;9.062;2023-06-10T11:49:57;5.03;;;3.38;;
76610;SDS011;65503;48.534;9.062;2023-06-10T11:52:28;6.00;;;3.38;;
76610;SDS011;65503;48.534;9.062;2023-06-10T11:54:58;5.93;;;3.25;;
76610;SDS011;65503;48.534;9.062;2023-06-10T11:57:25;5.10;;;3.20;;
76610;SDS011;65503;48.534;9.062;2023-06-10T11:59:52;5.47;;;3.30;;
76610;SDS011;65503;48.534;9.062;2023-06-10T12:04:45;6.75;;;3.63;;
76610;SDS011;65503;48.534;9.062;2023-06-10T12:09:46;6.43;;;3.13;;
76610;SDS011;65503;48.534;9.062;2023-06-10T12:20:09;4.88;;;3.25;;
76610;SDS011;65503;48.534;9.062;2023-06-10T12:22:50;5.00;;;3.10;;
76610;SDS011;65503;48.534;9.062;2023-06-10T12:25:16;5.20;;;3.50;;
76610;SDS011;65503;48.534;9.062;2023-06-10T12:27:50;4.47;;;3.35;;
76610;SDS011;65503;48.534;9.062;2023-06-10T12:30:18;5.43;;;3.08;;
76610;SDS011;65503;48.534;9.062;2023-06-10T12:32:47;4.70;;;2.90;;
76610;SDS011;65503;48.534;9.062;2023-06-10T12:35:16;5.72;;;3.17;;
76610;SDS011;65503;48.534;9.062;2023-06-10T12:38:03;5.30;;;2.92;;
76610;SDS011;65503;48.534;9.062;2023-06-10T12:40:41;6.53;;;3.17;;
76610;SDS011;65503;48.534;9.062;2023-06-10T12:43:08;4.68;;;3.13;;
76610;SDS011;65503;48.534;9.062;2023-06-10T12:45:36;4.35;;;2.70;;
76610;SDS011;65503;48.534;9.062;2023-06-10T12:48:17;4.93;;;3.20;;
76610;SDS011;65503;48.534;9.062;2023-06-10T12:50:44;6.05;;;2.90;;
76610;SDS011;65503;48.534;9.062;2023-06-10T12:53:11;4.10;;;2.70;;
76610;SDS011;65503;48.534;9.062;2023-06-10T12:55:37;4.57;;;2.60;;
76610;SDS011;65503;48.534;9.062;2023-06-10T12:58:04;8.05;;;2.80;;
76610;SDS011;65503;48.534;9.062;2023-06-10T13:00:31;4.00;;;2.47;;
76610;SDS011;65503;48.534;9.062;2023-06-10T13:05:28;5.00;;;3.20;;
76610;SDS011;65503;48.534;9.062;2023-06-10T13:07:55;4.22;;;2.50;;
76610;SDS011;65503;48.534;9.062;2023-06-10T13:12:51;5.22;;;2.78;;
76610;SDS011;65503;48.534;9.062;2023-06-10T13:15:18;4.85;;;3.10;;
76610;SDS011;65503;48.534;9.062;2023-06-10T13:17:45;4.47;;;2.88;;
76610;SDS011;65503;48.534;9.062;2023-06-10T13:20:15;4.75;;;3.05;;
76610;SDS011;65503;48.534;9.062;2023-06-10T13:22:43;5.10;;;3.17;;
76610;SDS011;65503;48.534;9.062;2023-06-10T13:25:09;4.32;;;3.08;;
76610;SDS011;65503;48.534;9.062;2023-06-10T13:27:37;5.05;;;3.20;;
76610;SDS011;65503;48.534;9.062;2023-06-10T13:30:09;4.85;;;2.78;;
76610;SDS011;65503;48.534;9.062;2023-06-10T13:32:37;5.97;;;3.08;;
76610;SDS011;65503;48.534;9.062;2023-06-10T13:35:04;4.65;;;2.70;;
76610;SDS011;65503;48.534;9.062;2023-06-10T13:37:32;4.50;;;2.95;;
76610;SDS011;65503;48.534;9.062;2023-06-10T13:40:01;8.02;;;2.80;;
76610;SDS011;65503;48.534;9.062;2023-06-10T13:42:28;4.38;;;2.58;;
76610;SDS011;65503;48.534;9.062;2023-06-10T13:44:55;5.25;;;2.72;;
76610;SDS011;65503;48.534;9.062;2023-06-10T13:47:23;6.25;;;3.10;;
76610;SDS011;65503;48.534;9.062;2023-06-10T13:49:49;4.45;;;2.97;;
76610;SDS011;65503;48.534;9.062;2023-06-10T13:52:16;5.68;;;2.30;;
76610;SDS011;65503;48.534;9.062;2023-06-10T13:54:43;4.63;;;2.97;;
76610;SDS011;65503;48.534;9.062;2023-06-10T13:59:36;5.15;;;2.60;;
76610;SDS011;65503;48.534;9.062;2023-06-10T14:02:03;4.38;;;2.80;;
76610;SDS011;65503;48.534;9.062;2023-06-10T14:04:33;5.28;;;3.33;;
76610;SDS011;65503;48.534;9.062;2023-06-10T14:09:26;5.03;;;3.08;;
76610;SDS011;65503;48.534;9.062;2023-06-10T14:11:53;4.90;;;3.30;;
76610;SDS011;65503;48.534;9.062;2023-06-10T14:14:20;4.93;;;3.17;;
76610;SDS011;65503;48.534;9.062;2023-06-10T14:16:47;4.93;;;3.13;;
76610;SDS011;65503;48.534;9.062;2023-06-10T14:21:40;5.32;;;3.47;;
76610;SDS011;65503;48.534;9.062;2023-06-10T14:24:06;5.30;;;3.53;;
76610;SDS011;65503;48.534;9.062;2023-06-10T14:26:33;5.50;;;2.92;;
76610;SDS011;65503;48.534;9.062;2023-06-10T14:31:28;4.90;;;3.00;;
76610;SDS011;65503;48.534;9.062;2023-06-10T14:36:21;5.50;;;2.92;;
76610;SDS011;65503;48.534;9.062;2023-06-10T14:38:48;5.55;;;2.95;;
76610;SDS011;65503;48.534;9.062;2023-06-10T14:41:15;4.38;;;2.83;;
76610;SDS011;65503;48.534;9.062;2023-06-10T14:46:08;3.63;;;2.50;;
76610;SDS011;65503;48.534;9.062;2023-06-10T14:51:01;4.22;;;2.72;;
76610;SDS011;65503;48.534;9.062;2023-06-10T14:53:28;5.78;;;3.05;;
76610;SDS011;65503;48.534;9.062;2023-06-10T14:55:55;6.63;;;3.20;;
76610;SDS011;65503;48.534;9.062;2023-06-10T14:58:21;4.95;;;2.90;;
76610;SDS011;65503;48.534;9.062;2023-06-10T15:03:15;4.97;;;3.15;;
76610;SDS011;65503;48.534;9.062;2023-06-10T15:05:41;4.97;;;3.30;;
76610;SDS011;65503;48.534;9.062;2023-06-10T15:08:08;5.25;;;2.97;;
76610;SDS011;65503;48.534;9.062;2023-06-10T15:10:34;5.18;;;3.38;;
76610;SDS011;65503;48.534;9.062;2023-06-10T15:13:01;7.25;;;3.50;;
76610;SDS011;65503;48.534;9.062;2023-06-10T15:15:27;4.60;;;2.97;;
76610;SDS011;65503;48.534;9.062;2023-06-10T15:20:20;4.82;;;3.13;;
76610;SDS011;65503;48.534;9.062;2023-06-10T15:25:13;4.45;;;2.92;;
76610;SDS011;65503;48.534;9.062;2023-06-10T15:27:43;6.55;;;3.63;;
76610;SDS011;65503;48.534;9.062;2023-06-10T15:30:10;4.93;;;3.17;;
76610;SDS011;65503;48.534;9.062;2023-06-10T15:32:37;6.70;;;3.50;;
76610;SDS011;65503;48.534;9.062;2023-06-10T15:35:04;6.78;;;3.42;;
76610;SDS011;65503;48.534;9.062;2023-06-10T15:37:30;4.65;;;3.08;;
76610;SDS011;65503;48.534;9.062;2023-06-10T15:39:57;4.30;;;2.97;;
76610;SDS011;65503;48.534;9.062;2023-06-10T15:44:50;5.50;;;3.17;;
76610;SDS011;65503;48.534;9.062;2023-06-10T15:47:19;4.95;;;3.25;;
76610;SDS011;65503;48.534;9.062;2023-06-10T15:49:46;5.20;;;3.60;;
76610;SDS011;65503;48.534;9.062;2023-06-10T15:52:13;5.75;;;3.42;;
76610;SDS011;65503;48.534;9.062;2023-06-10T15:54:39;5.20;;;3.17;;
76610;SDS011;65503;48.534;9.062;2023-06-10T15:57:06;4.78;;;3.13;;
76610;SDS011;65503;48.534;9.062;2023-06-10T15:59:34;5.00;;;3.38;;
76610;SDS011;65503;48.534;9.062;2023-06-10T16:02:01;6.57;;;3.80;;
76610;SDS011;65503;48.534;9.062;2023-06-10T16:04:29;7.15;;;4.15;;
76610;SDS011;65503;48.534;9.062;2023-06-10T16:09:23;5.70;;;3.78;;
76610;SDS011;65503;48.534;9.062;2023-06-10T16:11:50;6.30;;;3.75;;
76610;SDS011;65503;48.534;9.062;2023-06-10T16:14:16;5.47;;;3.63;;
76610;SDS011;65503;48.534;9.062;2023-06-10T16:16:42;6.00;;;3.50;;
76610;SDS011;65503;48.534;9.062;2023-06-10T16:19:09;6.78;;;3.63;;
76610;SDS011;65503;48.534;9.062;2023-06-10T16:24:03;6.05;;;3.63;;
76610;SDS011;65503;48.534;9.062;2023-06-10T16:26:30;6.97;;;3.67;;
76610;SDS011;65503;48.534;9.062;2023-06-10T16:28:57;6.13;;;3.70;;
76610;SDS011;65503;48.534;9.062;2023-06-10T16:31:26;5.28;;;3.45;;
76610;SDS011;65503;48.534;9.062;2023-06-10T16:33:53;5.18;;;3.47;;
76610;SDS011;65503;48.534;9.062;2023-06-10T16:36:19;6.75;;;3.50;;
76610;SDS011;65503;48.534;9.062;2023-06-10T16:38:46;5.05;;;3.35;;
76610;SDS011;65503;48.534;9.062;2023-06-10T16:41:12;5.68;;;4.18;;
76610;SDS011;65503;48.534;9.062;2023-06-10T16:43:39;8.18;;;3.40;;
76610;SDS011;65503;48.534;9.062;2023-06-10T16:46:06;5.07;;;3.38;;
76610;SDS011;65503;48.534;9.062;2023-06-10T16:50:59;7.90;;;3.65;;
76610;SDS011;65503;48.534;9.062;2023-06-10T16:53:25;9.82;;;3.58;;
76610;SDS011;65503;48.534;9.062;2023-06-10T16:55:52;6.95;;;3.85;;